sensor_id;sensor_type;location;lat;lon;timestamp;temperature;humidity
6102;DHT22;3081;50.584;7.032;2022-09-04T00:01:01;15.60;99.90
6102;DHT22;3081;50.584;7.032;2022-09-04T00:03:39;16.20;99.90
6102;DHT22;3081;50.584;7.032;2022-09-04T00:06:13;16.30;99.90
6102;DHT22;3081;50.584;7.032;2022-09-04T00:08:49;16.40;99.90
6102;DHT22;3081;50.584;7.032;2022-09-04T00:11:34;16.50;99.90
6102;DHT22;3081;50.584;7.032;2022-09-04T00:14:08;16.70;99.90
6102;DHT22;3081;50.584;7.032;2022-09-04T00:16:41;16.90;99.90
6102;DHT22;3081;50.584;7.032;2022-09-04T00:19:13;16.90;99.90
6102;DHT22;3081;50.584;7.032;2022-09-04T00:21:47;16.90;99.90
6102;DHT22;3081;50.584;7.032;2022-09-04T00:24:18;16.80;99.90
6102;DHT22;3081;50.584;7.032;2022-09-04T00:26:54;16.80;99.90
6102;DHT22;3081;50.584;7.032;2022-09-04T00:29:30;16.90;99.90
6102;DHT22;3081;50.584;7.032;2022-09-04T00:32:09;16.90;99.90
6102;DHT22;3081;50.584;7.032;2022-09-04T00:34:51;16.90;99.90
6102;DHT22;3081;50.584;7.032;2022-09-04T00:37:25;16.80;99.90
6102;DHT22;3081;50.584;7.032;2022-09-04T00:39:59;17.70;99.90
6102;DHT22;3081;50.584;7.032;2022-09-04T00:42:53;17.00;99.90
6102;DHT22;3081;50.584;7.032;2022-09-04T00:45:34;17.20;99.90
6102;DHT22;3081;50.584;7.032;2022-09-04T00:51:23;17.30;99.90
6102;DHT22;3081;50.584;7.032;2022-09-04T00:54:29;17.30;99.90
6102;DHT22;3081;50.584;7.032;2022-09-04T00:57:31;17.20;99.90
6102;DHT22;3081;50.584;7.032;2022-09-04T01:00:06;17.20;99.90
6102;DHT22;3081;50.584;7.032;2022-09-04T01:02:54;17.20;99.90
6102;DHT22;3081;50.584;7.032;2022-09-04T01:05:35;17.10;99.90
6102;DHT22;3081;50.584;7.032;2022-09-04T01:08:09;17.00;99.90
6102;DHT22;3081;50.584;7.032;2022-09-04T01:10:48;17.10;99.90
6102;DHT22;3081;50.584;7.032;2022-09-04T01:13:22;17.10;99.90
6102;DHT22;3081;50.584;7.032;2022-09-04T01:15:56;17.00;99.90
6102;DHT22;3081;50.584;7.032;2022-09-04T01:18:31;17.00;99.90
6102;DHT22;3081;50.584;7.032;2022-09-04T01:21:13;17.10;99.90
6102;DHT22;3081;50.584;7.032;2022-09-04T01:26:54;17.10;99.90
6102;DHT22;3081;50.584;7.032;2022-09-04T01:29:30;17.20;99.90
6102;DHT22;3081;50.584;7.032;2022-09-04T01:32:06;17.40;99.90
6102;DHT22;3081;50.584;7.032;2022-09-04T01:34:41;17.60;99.90
6102;DHT22;3081;50.584;7.032;2022-09-04T01:37:24;17.50;99.90
6102;DHT22;3081;50.584;7.032;2022-09-04T01:40:02;17.50;99.90
6102;DHT22;3081;50.584;7.032;2022-09-04T01:42:40;17.40;99.90
6102;DHT22;3081;50.584;7.032;2022-09-04T01:45:10;17.40;99.90
6102;DHT22;3081;50.584;7.032;2022-09-04T01:47:42;17.50;99.90
6102;DHT22;3081;50.584;7.032;2022-09-04T01:50:13;17.60;99.90
6102;DHT22;3081;50.584;7.032;2022-09-04T01:52:49;17.60;99.90
6102;DHT22;3081;50.584;7.032;2022-09-04T01:55:22;17.70;99.90
6102;DHT22;3081;50.584;7.032;2022-09-04T01:58:06;17.80;99.90
6102;DHT22;3081;50.584;7.032;2022-09-04T02:00:43;17.80;99.90
6102;DHT22;3081;50.584;7.032;2022-09-04T02:03:16;17.80;99.90
6102;DHT22;3081;50.584;7.032;2022-09-04T02:05:59;17.80;99.90
6102;DHT22;3081;50.584;7.032;2022-09-04T02:08:43;17.70;99.90
6102;DHT22;3081;50.584;7.032;2022-09-04T02:11:16;17.50;99.90
6102;DHT22;3081;50.584;7.032;2022-09-04T02:13:58;17.30;99.90
6102;DHT22;3081;50.584;7.032;2022-09-04T02:16:40;17.20;99.90
6102;DHT22;3081;50.584;7.032;2022-09-04T02:19:20;17.20;99.90
6102;DHT22;3081;50.584;7.032;2022-09-04T02:21:56;17.20;99.90
6102;DHT22;3081;50.584;7.032;2022-09-04T02:24:32;17.10;99.90
6102;DHT22;3081;50.584;7.032;2022-09-04T02:27:07;17.10;99.90
6102;DHT22;3081;50.584;7.032;2022-09-04T02:29:42;17.10;99.90
6102;DHT22;3081;50.584;7.032;2022-09-04T02:32:16;17.00;99.90
6102;DHT22;3081;50.584;7.032;2022-09-04T02:34:48;17.00;99.90
6102;DHT22;3081;50.584;7.032;2022-09-04T02:37:24;16.90;99.90
6102;DHT22;3081;50.584;7.032;2022-09-04T02:40:00;16.90;99.90
6102;DHT22;3081;50.584;7.032;2022-09-04T02:42:37;16.70;99.90
6102;DHT22;3081;50.584;7.032;2022-09-04T02:45:16;16.80;99.90
6102;DHT22;3081;50.584;7.032;2022-09-04T02:47:49;16.60;99.90
6102;DHT22;3081;50.584;7.032;2022-09-04T02:50:28;16.60;99.90
6102;DHT22;3081;50.584;7.032;2022-09-04T02:53:09;16.60;99.90
6102;DHT22;3081;50.584;7.032;2022-09-04T02:55:58;16.60;99.90
6102;DHT22;3081;50.584;7.032;2022-09-04T02:58:40;16.60;99.90
6102;DHT22;3081;50.584;7.032;2022-09-04T03:01:18;16.50;99.90
6102;DHT22;3081;50.584;7.032;2022-09-04T03:03:55;16.60;99.90
6102;DHT22;3081;50.584;7.032;2022-09-04T03:06:37;16.50;99.90
6102;DHT22;3081;50.584;7.032;2022-09-04T03:09:11;16.60;99.90
6102;DHT22;3081;50.584;7.032;2022-09-04T03:11:44;16.60;99.90
6102;DHT22;3081;50.584;7.032;2022-09-04T03:14:18;16.70;99.90
6102;DHT22;3081;50.584;7.032;2022-09-04T03:16:54;16.70;99.90
6102;DHT22;3081;50.584;7.032;2022-09-04T03:19:28;16.70;99.90
6102;DHT22;3081;50.584;7.032;2022-09-04T03:22:03;16.80;99.90
6102;DHT22;3081;50.584;7.032;2022-09-04T03:24:35;16.80;99.90
6102;DHT22;3081;50.584;7.032;2022-09-04T03:27:07;16.80;99.90
6102;DHT22;3081;50.584;7.032;2022-09-04T03:29:44;16.70;99.90
6102;DHT22;3081;50.584;7.032;2022-09-04T03:32:18;16.70;99.90
6102;DHT22;3081;50.584;7.032;2022-09-04T03:34:49;16.70;99.90
6102;DHT22;3081;50.584;7.032;2022-09-04T03:40:24;16.70;99.90
6102;DHT22;3081;50.584;7.032;2022-09-04T03:43:21;16.70;99.90
6102;DHT22;3081;50.584;7.032;2022-09-04T03:45:57;16.60;99.90
6102;DHT22;3081;50.584;7.032;2022-09-04T03:48:47;16.60;99.90
6102;DHT22;3081;50.584;7.032;2022-09-04T03:51:20;16.70;99.90
6102;DHT22;3081;50.584;7.032;2022-09-04T03:53:59;16.60;99.90
6102;DHT22;3081;50.584;7.032;2022-09-04T03:56:59;16.70;99.90
6102;DHT22;3081;50.584;7.032;2022-09-04T03:59:44;16.60;99.90
6102;DHT22;3081;50.584;7.032;2022-09-04T04:02:20;16.60;99.90
6102;DHT22;3081;50.584;7.032;2022-09-04T04:05:10;16.60;99.90
6102;DHT22;3081;50.584;7.032;2022-09-04T04:07:51;16.50;99.90
6102;DHT22;3081;50.584;7.032;2022-09-04T04:10:28;16.50;99.90
6102;DHT22;3081;50.584;7.032;2022-09-04T04:13:14;16.50;99.90
6102;DHT22;3081;50.584;7.032;2022-09-04T04:15:56;16.50;99.90
6102;DHT22;3081;50.584;7.032;2022-09-04T04:21:49;16.50;99.90
6102;DHT22;3081;50.584;7.032;2022-09-04T04:24:49;16.50;99.90
6102;DHT22;3081;50.584;7.032;2022-09-04T04:27:31;16.50;99.90
6102;DHT22;3081;50.584;7.032;2022-09-04T04:30:05;16.50;99.90
6102;DHT22;3081;50.584;7.032;2022-09-04T04:32:55;16.40;99.90
6102;DHT22;3081;50.584;7.032;2022-09-04T04:35:30;16.40;99.90
6102;DHT22;3081;50.584;7.032;2022-09-04T04:38:16;16.40;99.90
6102;DHT22;3081;50.584;7.032;2022-09-04T04:41:19;16.40;99.90
6102;DHT22;3081;50.584;7.032;2022-09-04T04:44:06;16.30;99.90
6102;DHT22;3081;50.584;7.032;2022-09-04T04:46:47;16.30;99.90
6102;DHT22;3081;50.584;7.032;2022-09-04T04:49:50;16.30;99.90
6102;DHT22;3081;50.584;7.032;2022-09-04T04:52:27;16.30;99.90
6102;DHT22;3081;50.584;7.032;2022-09-04T04:55:15;16.20;99.90
6102;DHT22;3081;50.584;7.032;2022-09-04T05:01:05;16.20;99.90
6102;DHT22;3081;50.584;7.032;2022-09-04T05:03:46;16.20;99.90
6102;DHT22;3081;50.584;7.032;2022-09-04T05:06:23;16.20;99.90
6102;DHT22;3081;50.584;7.032;2022-09-04T05:08:56;16.10;99.90
6102;DHT22;3081;50.584;7.032;2022-09-04T05:11:36;16.10;99.90
6102;DHT22;3081;50.584;7.032;2022-09-04T05:14:15;16.00;99.90
6102;DHT22;3081;50.584;7.032;2022-09-04T05:16:48;16.10;99.90
6102;DHT22;3081;50.584;7.032;2022-09-04T05:19:22;16.00;99.90
6102;DHT22;3081;50.584;7.032;2022-09-04T05:21:56;16.00;99.90
6102;DHT22;3081;50.584;7.032;2022-09-04T05:24:31;16.00;99.90
6102;DHT22;3081;50.584;7.032;2022-09-04T05:27:09;16.00;99.90
6102;DHT22;3081;50.584;7.032;2022-09-04T05:29:42;16.00;99.90
6102;DHT22;3081;50.584;7.032;2022-09-04T05:32:22;16.00;99.90
6102;DHT22;3081;50.584;7.032;2022-09-04T05:34:58;16.00;99.90
6102;DHT22;3081;50.584;7.032;2022-09-04T05:37:33;16.00;99.90
6102;DHT22;3081;50.584;7.032;2022-09-04T05:40:06;16.00;99.90
6102;DHT22;3081;50.584;7.032;2022-09-04T05:42:51;16.00;99.90
6102;DHT22;3081;50.584;7.032;2022-09-04T05:45:23;16.00;99.90
6102;DHT22;3081;50.584;7.032;2022-09-04T05:48:05;16.00;99.90
6102;DHT22;3081;50.584;7.032;2022-09-04T05:50:52;16.10;99.90
6102;DHT22;3081;50.584;7.032;2022-09-04T05:53:49;16.10;99.90
6102;DHT22;3081;50.584;7.032;2022-09-04T05:56:55;16.20;99.90
6102;DHT22;3081;50.584;7.032;2022-09-04T05:59:41;16.30;99.90
6102;DHT22;3081;50.584;7.032;2022-09-04T06:02:35;16.40;99.90
6102;DHT22;3081;50.584;7.032;2022-09-04T06:05:25;16.50;99.90
6102;DHT22;3081;50.584;7.032;2022-09-04T06:08:00;16.50;99.90
6102;DHT22;3081;50.584;7.032;2022-09-04T06:10:43;16.60;99.90
6102;DHT22;3081;50.584;7.032;2022-09-04T06:13:44;16.70;99.90
6102;DHT22;3081;50.584;7.032;2022-09-04T06:16:31;16.90;99.90
6102;DHT22;3081;50.584;7.032;2022-09-04T06:19:30;17.00;99.90
6102;DHT22;3081;50.584;7.032;2022-09-04T06:22:20;17.00;99.90
6102;DHT22;3081;50.584;7.032;2022-09-04T06:28:07;17.20;99.90
6102;DHT22;3081;50.584;7.032;2022-09-04T06:30:46;17.20;99.90
6102;DHT22;3081;50.584;7.032;2022-09-04T06:33:23;17.40;99.90
6102;DHT22;3081;50.584;7.032;2022-09-04T06:39:16;17.60;99.90
6102;DHT22;3081;50.584;7.032;2022-09-04T06:41:56;17.70;99.90
6102;DHT22;3081;50.584;7.032;2022-09-04T06:44:36;17.90;99.90
6102;DHT22;3081;50.584;7.032;2022-09-04T06:47:12;18.00;99.90
6102;DHT22;3081;50.584;7.032;2022-09-04T06:50:06;18.10;99.90
6102;DHT22;3081;50.584;7.032;2022-09-04T06:52:46;18.10;99.90
6102;DHT22;3081;50.584;7.032;2022-09-04T06:55:20;18.20;99.90
6102;DHT22;3081;50.584;7.032;2022-09-04T07:00:52;18.30;99.90
6102;DHT22;3081;50.584;7.032;2022-09-04T07:06:18;18.60;99.90
6102;DHT22;3081;50.584;7.032;2022-09-04T07:08:56;18.60;99.90
6102;DHT22;3081;50.584;7.032;2022-09-04T07:11:42;18.70;99.90
6102;DHT22;3081;50.584;7.032;2022-09-04T07:14:25;18.80;99.90
6102;DHT22;3081;50.584;7.032;2022-09-04T07:17:05;18.90;99.90
6102;DHT22;3081;50.584;7.032;2022-09-04T07:20:00;19.00;99.90
6102;DHT22;3081;50.584;7.032;2022-09-04T07:22:52;19.10;99.90
6102;DHT22;3081;50.584;7.032;2022-09-04T07:25:24;19.30;99.90
6102;DHT22;3081;50.584;7.032;2022-09-04T07:28:08;19.40;99.90
6102;DHT22;3081;50.584;7.032;2022-09-04T07:30:41;19.40;99.90
6102;DHT22;3081;50.584;7.032;2022-09-04T07:33:15;19.50;99.90
6102;DHT22;3081;50.584;7.032;2022-09-04T07:35:50;19.60;99.90
6102;DHT22;3081;50.584;7.032;2022-09-04T07:38:28;19.70;99.90
6102;DHT22;3081;50.584;7.032;2022-09-04T07:41:03;19.70;99.90
6102;DHT22;3081;50.584;7.032;2022-09-04T07:43:41;19.70;99.90
6102;DHT22;3081;50.584;7.032;2022-09-04T07:46:17;19.70;99.90
6102;DHT22;3081;50.584;7.032;2022-09-04T07:48:50;19.80;99.90
6102;DHT22;3081;50.584;7.032;2022-09-04T07:51:21;19.90;99.90
6102;DHT22;3081;50.584;7.032;2022-09-04T07:54:28;20.00;99.90
6102;DHT22;3081;50.584;7.032;2022-09-04T07:57:11;20.10;99.90
6102;DHT22;3081;50.584;7.032;2022-09-04T08:02:44;20.20;99.90
6102;DHT22;3081;50.584;7.032;2022-09-04T08:05:21;20.40;99.90
6102;DHT22;3081;50.584;7.032;2022-09-04T08:08:12;20.50;99.90
6102;DHT22;3081;50.584;7.032;2022-09-04T08:10:53;20.60;99.90
6102;DHT22;3081;50.584;7.032;2022-09-04T08:13:36;20.80;99.90
6102;DHT22;3081;50.584;7.032;2022-09-04T08:16:07;20.90;99.90
6102;DHT22;3081;50.584;7.032;2022-09-04T08:18:54;21.00;99.90
6102;DHT22;3081;50.584;7.032;2022-09-04T08:21:27;21.10;99.90
6102;DHT22;3081;50.584;7.032;2022-09-04T08:24:17;21.20;99.90
6102;DHT22;3081;50.584;7.032;2022-09-04T08:26:59;21.20;99.90
6102;DHT22;3081;50.584;7.032;2022-09-04T08:29:46;21.30;99.90
6102;DHT22;3081;50.584;7.032;2022-09-04T08:32:31;21.50;99.90
6102;DHT22;3081;50.584;7.032;2022-09-04T08:35:09;21.60;99.90
6102;DHT22;3081;50.584;7.032;2022-09-04T08:37:48;21.80;99.90
6102;DHT22;3081;50.584;7.032;2022-09-04T08:40:54;22.10;99.90
6102;DHT22;3081;50.584;7.032;2022-09-04T08:43:45;22.60;99.90
6102;DHT22;3081;50.584;7.032;2022-09-04T08:46:44;23.30;99.90
6102;DHT22;3081;50.584;7.032;2022-09-04T08:49:50;24.30;99.90
6102;DHT22;3081;50.584;7.032;2022-09-04T08:52:54;25.50;99.90
6102;DHT22;3081;50.584;7.032;2022-09-04T08:55:42;26.80;99.90
6102;DHT22;3081;50.584;7.032;2022-09-04T09:01:57;29.30;99.90
6102;DHT22;3081;50.584;7.032;2022-09-04T09:04:50;30.70;99.90
6102;DHT22;3081;50.584;7.032;2022-09-04T09:11:01;32.10;94.20
6102;DHT22;3081;50.584;7.032;2022-09-04T09:13:54;32.60;91.70
6102;DHT22;3081;50.584;7.032;2022-09-04T09:16:39;33.10;88.50
6102;DHT22;3081;50.584;7.032;2022-09-04T09:19:18;33.40;84.80
6102;DHT22;3081;50.584;7.032;2022-09-04T09:22:06;33.70;82.80
6102;DHT22;3081;50.584;7.032;2022-09-04T09:25:07;33.90;79.50
6102;DHT22;3081;50.584;7.032;2022-09-04T09:31:14;34.30;77.10
6102;DHT22;3081;50.584;7.032;2022-09-04T09:34:26;34.70;73.80
6102;DHT22;3081;50.584;7.032;2022-09-04T09:37:12;34.60;71.70
6102;DHT22;3081;50.584;7.032;2022-09-04T09:40:14;33.50;72.70
6102;DHT22;3081;50.584;7.032;2022-09-04T09:43:19;33.10;72.90
6102;DHT22;3081;50.584;7.032;2022-09-04T09:49:09;32.80;72.60
6102;DHT22;3081;50.584;7.032;2022-09-04T09:52:05;33.70;70.50
6102;DHT22;3081;50.584;7.032;2022-09-04T09:55:02;34.90;65.50
6102;DHT22;3081;50.584;7.032;2022-09-04T09:58:14;35.50;63.40
6102;DHT22;3081;50.584;7.032;2022-09-04T10:00:59;35.90;62.50
6102;DHT22;3081;50.584;7.032;2022-09-04T10:03:55;36.50;59.60
6102;DHT22;3081;50.584;7.032;2022-09-04T10:06:58;37.00;58.30
6102;DHT22;3081;50.584;7.032;2022-09-04T10:09:59;37.30;57.20
6102;DHT22;3081;50.584;7.032;2022-09-04T10:15:59;37.80;56.20
6102;DHT22;3081;50.584;7.032;2022-09-04T10:19:08;38.00;55.70
6102;DHT22;3081;50.584;7.032;2022-09-04T10:22:17;36.90;54.40
6102;DHT22;3081;50.584;7.032;2022-09-04T10:25:24;36.40;55.70
6102;DHT22;3081;50.584;7.032;2022-09-04T10:28:26;35.30;55.80
6102;DHT22;3081;50.584;7.032;2022-09-04T10:31:17;33.20;59.30
6102;DHT22;3081;50.584;7.032;2022-09-04T10:34:03;31.70;62.20
6102;DHT22;3081;50.584;7.032;2022-09-04T10:36:40;30.70;65.80
6102;DHT22;3081;50.584;7.032;2022-09-04T10:39:19;29.90;67.60
6102;DHT22;3081;50.584;7.032;2022-09-04T10:42:39;29.40;69.40
6102;DHT22;3081;50.584;7.032;2022-09-04T10:45:15;29.00;70.40
6102;DHT22;3081;50.584;7.032;2022-09-04T10:48:05;28.60;71.50
6102;DHT22;3081;50.584;7.032;2022-09-04T10:51:07;28.40;72.30
6102;DHT22;3081;50.584;7.032;2022-09-04T10:57:01;28.20;73.60
6102;DHT22;3081;50.584;7.032;2022-09-04T10:59:46;28.20;74.00
6102;DHT22;3081;50.584;7.032;2022-09-04T11:02:46;28.20;74.10
6102;DHT22;3081;50.584;7.032;2022-09-04T11:05:29;28.10;74.40
6102;DHT22;3081;50.584;7.032;2022-09-04T11:08:47;28.10;74.70
6102;DHT22;3081;50.584;7.032;2022-09-04T11:11:27;28.00;74.70
6102;DHT22;3081;50.584;7.032;2022-09-04T11:14:17;27.90;75.20
6102;DHT22;3081;50.584;7.032;2022-09-04T11:17:18;27.80;75.70
6102;DHT22;3081;50.584;7.032;2022-09-04T11:20:14;27.80;76.20
6102;DHT22;3081;50.584;7.032;2022-09-04T11:26:38;28.10;75.90
6102;DHT22;3081;50.584;7.032;2022-09-04T11:29:32;28.20;75.40
6102;DHT22;3081;50.584;7.032;2022-09-04T11:35:34;28.40;75.40
6102;DHT22;3081;50.584;7.032;2022-09-04T11:38:08;28.00;76.20
6102;DHT22;3081;50.584;7.032;2022-09-04T11:41:17;27.90;76.40
6102;DHT22;3081;50.584;7.032;2022-09-04T11:47:22;27.90;77.00
6102;DHT22;3081;50.584;7.032;2022-09-04T11:50:14;27.90;77.30
6102;DHT22;3081;50.584;7.032;2022-09-04T11:53:13;27.90;77.70
6102;DHT22;3081;50.584;7.032;2022-09-04T11:56:02;28.40;77.30
6102;DHT22;3081;50.584;7.032;2022-09-04T11:58:53;28.60;76.20
6102;DHT22;3081;50.584;7.032;2022-09-04T12:01:48;28.50;75.70
6102;DHT22;3081;50.584;7.032;2022-09-04T12:04:36;28.40;76.50
6102;DHT22;3081;50.584;7.032;2022-09-04T12:07:15;28.30;76.80
6102;DHT22;3081;50.584;7.032;2022-09-04T12:16:19;28.50;74.70
6102;DHT22;3081;50.584;7.032;2022-09-04T12:25:29;30.60;73.20
6102;DHT22;3081;50.584;7.032;2022-09-04T12:28:35;32.20;69.40
6102;DHT22;3081;50.584;7.032;2022-09-04T12:37:20;37.20;56.70
6102;DHT22;3081;50.584;7.032;2022-09-04T12:40:26;37.80;55.30
6102;DHT22;3081;50.584;7.032;2022-09-04T12:42:59;38.30;52.80
6102;DHT22;3081;50.584;7.032;2022-09-04T12:45:34;37.10;53.60
6102;DHT22;3081;50.584;7.032;2022-09-04T12:48:12;36.00;55.70
6102;DHT22;3081;50.584;7.032;2022-09-04T12:50:46;35.70;56.90
6102;DHT22;3081;50.584;7.032;2022-09-04T12:53:28;36.30;57.30
6102;DHT22;3081;50.584;7.032;2022-09-04T12:56:03;37.50;54.10
6102;DHT22;3081;50.584;7.032;2022-09-04T12:58:49;37.90;53.10
6102;DHT22;3081;50.584;7.032;2022-09-04T13:01:28;38.50;51.50
6102;DHT22;3081;50.584;7.032;2022-09-04T13:04:00;39.30;49.60
6102;DHT22;3081;50.584;7.032;2022-09-04T13:06:34;39.00;48.50
6102;DHT22;3081;50.584;7.032;2022-09-04T13:09:15;39.30;48.10
6102;DHT22;3081;50.584;7.032;2022-09-04T13:11:56;39.80;47.40
6102;DHT22;3081;50.584;7.032;2022-09-04T13:14:54;40.10;46.90
6102;DHT22;3081;50.584;7.032;2022-09-04T13:17:31;40.70;46.50
6102;DHT22;3081;50.584;7.032;2022-09-04T13:20:05;41.60;44.00
6102;DHT22;3081;50.584;7.032;2022-09-04T13:22:53;42.40;42.90
6102;DHT22;3081;50.584;7.032;2022-09-04T13:25:38;43.10;41.90
6102;DHT22;3081;50.584;7.032;2022-09-04T13:28:13;43.70;41.30
6102;DHT22;3081;50.584;7.032;2022-09-04T13:30:47;44.10;41.20
6102;DHT22;3081;50.584;7.032;2022-09-04T13:33:30;43.90;40.60
6102;DHT22;3081;50.584;7.032;2022-09-04T13:36:12;42.80;41.30
6102;DHT22;3081;50.584;7.032;2022-09-04T13:44:53;39.00;46.80
6102;DHT22;3081;50.584;7.032;2022-09-04T13:47:24;38.80;47.60
6102;DHT22;3081;50.584;7.032;2022-09-04T13:49:56;38.90;46.10
6102;DHT22;3081;50.584;7.032;2022-09-04T13:52:29;38.00;47.20
6102;DHT22;3081;50.584;7.032;2022-09-04T13:55:04;37.40;47.90
6102;DHT22;3081;50.584;7.032;2022-09-04T13:57:41;36.50;48.20
6102;DHT22;3081;50.584;7.032;2022-09-04T14:00:13;35.50;48.80
6102;DHT22;3081;50.584;7.032;2022-09-04T14:02:41;34.60;50.30
6102;DHT22;3081;50.584;7.032;2022-09-04T14:05:12;34.10;50.70
6102;DHT22;3081;50.584;7.032;2022-09-04T14:07:42;33.90;51.20
6102;DHT22;3081;50.584;7.032;2022-09-04T14:10:11;33.90;51.80
6102;DHT22;3081;50.584;7.032;2022-09-04T14:12:59;35.20;52.00
6102;DHT22;3081;50.584;7.032;2022-09-04T14:15:41;37.20;49.80
6102;DHT22;3081;50.584;7.032;2022-09-04T14:18:21;39.40;46.90
6102;DHT22;3081;50.584;7.032;2022-09-04T14:20:53;41.40;44.60
6102;DHT22;3081;50.584;7.032;2022-09-04T14:23:35;42.30;42.20
6102;DHT22;3081;50.584;7.032;2022-09-04T14:26:12;43.40;40.60
6102;DHT22;3081;50.584;7.032;2022-09-04T14:28:48;44.90;38.70
6102;DHT22;3081;50.584;7.032;2022-09-04T14:31:21;45.80;36.90
6102;DHT22;3081;50.584;7.032;2022-09-04T14:33:55;44.40;36.90
6102;DHT22;3081;50.584;7.032;2022-09-04T14:36:34;41.50;39.50
6102;DHT22;3081;50.584;7.032;2022-09-04T14:39:13;38.80;42.80
6102;DHT22;3081;50.584;7.032;2022-09-04T14:42:15;36.50;46.80
6102;DHT22;3081;50.584;7.032;2022-09-04T14:45:04;34.90;49.50
6102;DHT22;3081;50.584;7.032;2022-09-04T14:47:40;33.80;51.10
6102;DHT22;3081;50.584;7.032;2022-09-04T14:50:10;33.20;52.70
6102;DHT22;3081;50.584;7.032;2022-09-04T14:52:40;33.10;52.50
6102;DHT22;3081;50.584;7.032;2022-09-04T14:55:13;34.30;52.40
6102;DHT22;3081;50.584;7.032;2022-09-04T14:57:45;38.00;48.80
6102;DHT22;3081;50.584;7.032;2022-09-04T15:00:16;41.20;44.50
6102;DHT22;3081;50.584;7.032;2022-09-04T15:02:49;44.00;41.30
6102;DHT22;3081;50.584;7.032;2022-09-04T15:05:22;45.60;38.80
6102;DHT22;3081;50.584;7.032;2022-09-04T15:07:58;47.20;37.10
6102;DHT22;3081;50.584;7.032;2022-09-04T15:10:45;48.90;37.80
6102;DHT22;3081;50.584;7.032;2022-09-04T15:13:47;49.80;33.40
6102;DHT22;3081;50.584;7.032;2022-09-04T15:16:25;50.80;32.50
6102;DHT22;3081;50.584;7.032;2022-09-04T15:18:59;51.30;31.60
6102;DHT22;3081;50.584;7.032;2022-09-04T15:21:35;51.70;31.10
6102;DHT22;3081;50.584;7.032;2022-09-04T15:24:13;52.20;30.40
6102;DHT22;3081;50.584;7.032;2022-09-04T15:26:44;51.70;29.60
6102;DHT22;3081;50.584;7.032;2022-09-04T15:29:15;52.60;29.70
6102;DHT22;3081;50.584;7.032;2022-09-04T15:31:45;52.60;29.10
6102;DHT22;3081;50.584;7.032;2022-09-04T15:34:19;53.20;30.10
6102;DHT22;3081;50.584;7.032;2022-09-04T15:36:47;53.30;38.50
6102;DHT22;3081;50.584;7.032;2022-09-04T15:39:25;53.30;36.60
6102;DHT22;3081;50.584;7.032;2022-09-04T15:41:53;52.90;28.70
6102;DHT22;3081;50.584;7.032;2022-09-04T15:44:24;53.00;28.50
6102;DHT22;3081;50.584;7.032;2022-09-04T15:46:59;52.80;28.40
6102;DHT22;3081;50.584;7.032;2022-09-04T15:49:39;52.60;28.20
6102;DHT22;3081;50.584;7.032;2022-09-04T15:52:23;52.60;28.20
6102;DHT22;3081;50.584;7.032;2022-09-04T15:55:07;51.00;29.30
6102;DHT22;3081;50.584;7.032;2022-09-04T15:57:47;50.10;29.60
6102;DHT22;3081;50.584;7.032;2022-09-04T16:00:20;49.50;29.80
6102;DHT22;3081;50.584;7.032;2022-09-04T16:02:53;48.60;30.30
6102;DHT22;3081;50.584;7.032;2022-09-04T16:05:28;47.30;31.20
6102;DHT22;3081;50.584;7.032;2022-09-04T16:08:14;46.00;31.80
6102;DHT22;3081;50.584;7.032;2022-09-04T16:10:51;43.90;33.50
6102;DHT22;3081;50.584;7.032;2022-09-04T16:13:41;42.50;35.90
6102;DHT22;3081;50.584;7.032;2022-09-04T16:16:13;42.10;36.50
6102;DHT22;3081;50.584;7.032;2022-09-04T16:18:49;41.60;36.80
6102;DHT22;3081;50.584;7.032;2022-09-04T16:21:23;40.40;38.00
6102;DHT22;3081;50.584;7.032;2022-09-04T16:23:53;39.50;39.20
6102;DHT22;3081;50.584;7.032;2022-09-04T16:26:28;39.00;40.00
6102;DHT22;3081;50.584;7.032;2022-09-04T16:29:02;39.30;40.10
6102;DHT22;3081;50.584;7.032;2022-09-04T16:31:33;40.10;39.40
6102;DHT22;3081;50.584;7.032;2022-09-04T16:34:10;40.40;38.80
6102;DHT22;3081;50.584;7.032;2022-09-04T16:36:43;40.50;39.10
6102;DHT22;3081;50.584;7.032;2022-09-04T16:39:21;40.50;38.50
6102;DHT22;3081;50.584;7.032;2022-09-04T16:41:53;40.20;39.10
6102;DHT22;3081;50.584;7.032;2022-09-04T16:44:24;39.50;40.20
6102;DHT22;3081;50.584;7.032;2022-09-04T16:46:56;38.80;41.30
6102;DHT22;3081;50.584;7.032;2022-09-04T16:49:37;38.80;41.90
6102;DHT22;3081;50.584;7.032;2022-09-04T16:52:27;38.80;42.00
6102;DHT22;3081;50.584;7.032;2022-09-04T16:55:03;38.70;42.00
6102;DHT22;3081;50.584;7.032;2022-09-04T16:57:36;38.40;42.70
6102;DHT22;3081;50.584;7.032;2022-09-04T17:00:09;38.80;41.90
6102;DHT22;3081;50.584;7.032;2022-09-04T17:02:42;39.90;41.00
6102;DHT22;3081;50.584;7.032;2022-09-04T17:05:16;40.50;39.60
6102;DHT22;3081;50.584;7.032;2022-09-04T17:07:48;40.80;39.00
6102;DHT22;3081;50.584;7.032;2022-09-04T17:10:38;41.00;38.80
6102;DHT22;3081;50.584;7.032;2022-09-04T17:13:10;40.50;38.70
6102;DHT22;3081;50.584;7.032;2022-09-04T17:15:47;39.80;39.40
6102;DHT22;3081;50.584;7.032;2022-09-04T17:18:19;39.30;39.90
6102;DHT22;3081;50.584;7.032;2022-09-04T17:20:55;39.30;40.40
6102;DHT22;3081;50.584;7.032;2022-09-04T17:23:29;39.20;40.10
6102;DHT22;3081;50.584;7.032;2022-09-04T17:26:07;38.50;40.60
6102;DHT22;3081;50.584;7.032;2022-09-04T17:28:44;38.10;41.80
6102;DHT22;3081;50.584;7.032;2022-09-04T17:31:19;37.60;42.40
6102;DHT22;3081;50.584;7.032;2022-09-04T17:33:54;37.50;43.00
6102;DHT22;3081;50.584;7.032;2022-09-04T17:36:30;37.20;43.00
6102;DHT22;3081;50.584;7.032;2022-09-04T17:39:02;36.30;43.80
6102;DHT22;3081;50.584;7.032;2022-09-04T17:41:38;35.10;45.30
6102;DHT22;3081;50.584;7.032;2022-09-04T17:44:20;33.80;47.20
6102;DHT22;3081;50.584;7.032;2022-09-04T17:46:58;32.70;49.10
6102;DHT22;3081;50.584;7.032;2022-09-04T17:49:31;31.80;50.60
6102;DHT22;3081;50.584;7.032;2022-09-04T17:52:03;31.00;52.00
6102;DHT22;3081;50.584;7.032;2022-09-04T17:54:37;30.40;53.50
6102;DHT22;3081;50.584;7.032;2022-09-04T17:57:11;29.90;55.60
6102;DHT22;3081;50.584;7.032;2022-09-04T17:59:41;29.30;57.10
6102;DHT22;3081;50.584;7.032;2022-09-04T18:02:13;28.70;58.60
6102;DHT22;3081;50.584;7.032;2022-09-04T18:04:46;28.20;60.10
6102;DHT22;3081;50.584;7.032;2022-09-04T18:07:22;27.80;61.50
6102;DHT22;3081;50.584;7.032;2022-09-04T18:10:02;27.40;63.50
6102;DHT22;3081;50.584;7.032;2022-09-04T18:12:38;26.90;65.00
6102;DHT22;3081;50.584;7.032;2022-09-04T18:15:10;26.40;67.40
6102;DHT22;3081;50.584;7.032;2022-09-04T18:17:46;26.00;68.60
6102;DHT22;3081;50.584;7.032;2022-09-04T18:20:23;25.60;70.70
6102;DHT22;3081;50.584;7.032;2022-09-04T18:23:21;25.40;70.40
6102;DHT22;3081;50.584;7.032;2022-09-04T18:25:54;25.10;70.80
6102;DHT22;3081;50.584;7.032;2022-09-04T18:28:28;24.90;71.50
6102;DHT22;3081;50.584;7.032;2022-09-04T18:31:05;24.80;71.60
6102;DHT22;3081;50.584;7.032;2022-09-04T18:33:39;24.70;72.10
6102;DHT22;3081;50.584;7.032;2022-09-04T18:36:12;24.50;72.70
6102;DHT22;3081;50.584;7.032;2022-09-04T18:38:53;24.30;73.50
6102;DHT22;3081;50.584;7.032;2022-09-04T18:41:26;24.10;74.00
6102;DHT22;3081;50.584;7.032;2022-09-04T18:43:59;24.00;74.10
6102;DHT22;3081;50.584;7.032;2022-09-04T18:46:29;24.00;74.40
6102;DHT22;3081;50.584;7.032;2022-09-04T18:49:01;23.90;74.70
6102;DHT22;3081;50.584;7.032;2022-09-04T18:51:34;23.90;76.10
6102;DHT22;3081;50.584;7.032;2022-09-04T18:54:09;23.80;76.20
6102;DHT22;3081;50.584;7.032;2022-09-04T18:56:42;23.60;76.90